createdAt,value
2018-02-24T00:00:22.728Z,34.12
2018-02-24T00:02:51.048Z,34.11
2018-02-24T00:05:19.330Z,34.09
2018-02-24T00:07:47.625Z,34.09
2018-02-24T00:10:15.910Z,34.08
2018-02-24T00:12:44.212Z,34.04
2018-02-24T00:15:12.511Z,34.03
2018-02-24T00:17:40.803Z,34.02
2018-02-24T00:20:09.135Z,34.02
2018-02-24T00:22:45.243Z,34.00
2018-02-24T00:25:13.554Z,33.99
2018-02-24T00:27:41.847Z,33.96
2018-02-24T00:30:10.124Z,33.97
2018-02-24T00:32:38.429Z,33.95
2018-02-24T00:35:06.712Z,33.94
2018-02-24T00:37:35.002Z,33.93
2018-02-24T00:40:03.309Z,33.92
2018-02-24T00:42:32.189Z,33.91
2018-02-24T00:45:00.475Z,33.91
2018-02-24T00:47:28.771Z,33.87
2018-02-24T00:49:56.905Z,33.86
2018-02-24T00:52:25.212Z,33.85
2018-02-24T00:54:53.503Z,33.84
2018-02-24T00:57:21.594Z,33.84
2018-02-24T00:59:49.870Z,33.83
2018-02-24T01:02:17.999Z,33.80
2018-02-24T01:04:46.293Z,33.81
2018-02-24T01:07:15.390Z,33.78
2018-02-24T01:09:43.670Z,33.80
2018-02-24T01:12:11.701Z,33.80
2018-02-24T01:14:39.989Z,33.82
2018-02-24T01:17:08.285Z,33.78
2018-02-24T01:19:36.565Z,33.75
2018-02-24T01:22:04.885Z,33.73
2018-02-24T01:24:33.188Z,33.69
2018-02-24T01:27:01.535Z,33.65
2018-02-24T01:29:29.837Z,33.61
2018-02-24T01:31:58.141Z,33.58
2018-02-24T01:34:26.430Z,33.56
2018-02-24T01:36:54.738Z,33.53
2018-02-24T01:39:23.041Z,33.51
2018-02-24T01:41:51.346Z,33.50
2018-02-24T01:44:19.653Z,33.48
2018-02-24T01:46:47.966Z,33.43
2018-02-24T01:49:16.271Z,33.41
2018-02-24T01:51:44.589Z,33.40
2018-02-24T01:54:12.875Z,33.35
2018-02-24T01:56:41.187Z,33.35
2018-02-24T01:59:09.474Z,33.31
2018-02-24T02:01:37.771Z,33.27
2018-02-24T02:04:06.047Z,33.24
2018-02-24T02:06:34.406Z,33.21
2018-02-24T02:09:02.817Z,33.17
2018-02-24T02:11:31.099Z,33.14
2018-02-24T02:13:59.379Z,33.10
2018-02-24T02:16:27.663Z,33.07
2018-02-24T02:18:55.938Z,33.04
2018-02-24T02:21:24.218Z,33.00
2018-02-24T02:23:52.517Z,32.99
2018-02-24T02:26:20.790Z,32.98
2018-02-24T02:28:49.087Z,32.94
2018-02-24T02:31:17.399Z,32.93
2018-02-24T02:33:45.872Z,32.91
2018-02-24T02:36:14.194Z,32.88
2018-02-24T02:38:42.475Z,32.88
2018-02-24T02:41:10.793Z,32.86
2018-02-24T02:43:39.101Z,32.86
2018-02-24T02:46:07.461Z,32.85
2018-02-24T02:48:35.741Z,32.83
2018-02-24T02:51:04.046Z,32.83
2018-02-24T02:53:32.327Z,32.83
2018-02-24T02:56:00.619Z,32.84
2018-02-24T02:58:28.919Z,32.84
2018-02-24T03:00:57.217Z,32.83
2018-02-24T03:03:25.512Z,32.83
2018-02-24T03:05:53.842Z,32.82
2018-02-24T03:08:22.149Z,32.79
2018-02-24T03:10:50.646Z,32.78
2018-02-24T03:13:18.926Z,32.76
2018-02-24T03:15:47.210Z,32.74
2018-02-24T03:18:15.489Z,32.72
2018-02-24T03:20:43.794Z,32.67
2018-02-24T03:23:12.090Z,32.64
2018-02-24T03:25:40.377Z,32.61
2018-02-24T03:28:08.670Z,32.58
2018-02-24T03:30:36.942Z,32.54
2018-02-24T03:33:05.221Z,32.52
2018-02-24T03:35:33.551Z,32.50
2018-02-24T03:38:01.838Z,32.47
2018-02-24T03:40:30.109Z,32.45
2018-02-24T03:42:58.227Z,32.44
2018-02-24T03:45:26.338Z,32.45
2018-02-24T03:47:54.429Z,32.44
2018-02-24T03:50:22.522Z,32.44
2018-02-24T03:52:50.626Z,32.46
2018-02-24T03:55:18.741Z,32.45
2018-02-24T03:57:47.079Z,32.45
2018-02-24T04:00:15.359Z,32.47
2018-02-24T04:02:43.637Z,32.49
2018-02-24T04:05:11.755Z,32.51
2018-02-24T04:07:40.056Z,32.51
2018-02-24T04:10:08.348Z,32.52
2018-02-24T04:12:36.646Z,32.51
2018-02-24T04:15:04.946Z,32.50
2018-02-24T04:17:33.228Z,32.48
2018-02-24T04:20:01.553Z,32.45
2018-02-24T04:22:29.850Z,32.41
2018-02-24T04:24:58.167Z,32.39
2018-02-24T04:27:26.459Z,32.34
2018-02-24T04:29:54.734Z,32.32
2018-02-24T04:32:23.023Z,32.29
2018-02-24T04:34:51.335Z,32.25
2018-02-24T04:37:19.668Z,32.23
2018-02-24T04:39:47.950Z,32.19
2018-02-24T04:42:16.226Z,32.17
2018-02-24T04:44:44.503Z,32.15
2018-02-24T04:47:12.775Z,32.12
2018-02-24T04:49:41.058Z,32.10
2018-02-24T04:52:09.354Z,32.10
2018-02-24T04:54:37.656Z,32.08
2018-02-24T04:57:05.754Z,32.07
2018-02-24T04:59:34.043Z,32.09
2018-02-24T05:02:02.328Z,32.09
2018-02-24T05:04:30.609Z,32.12
2018-02-24T05:06:59.066Z,32.14
2018-02-24T05:09:27.350Z,32.16
2018-02-24T05:11:55.630Z,32.20
2018-02-24T05:14:23.906Z,32.23
2018-02-24T05:16:52.183Z,32.25
2018-02-24T05:19:20.494Z,32.19
2018-02-24T05:21:48.774Z,32.04
2018-02-24T05:24:17.051Z,31.86
2018-02-24T05:26:45.328Z,31.87
2018-02-24T05:29:13.616Z,31.86
2018-02-24T05:31:41.967Z,31.71
2018-02-24T05:34:10.489Z,31.71
2018-02-24T05:36:38.806Z,31.81
2018-02-24T05:39:07.090Z,31.78
2018-02-24T05:41:35.369Z,31.72
2018-02-24T05:44:03.683Z,31.64
2018-02-24T05:46:32.061Z,31.57
2018-02-24T05:49:00.372Z,31.64
2018-02-24T05:51:28.686Z,31.68
2018-02-24T05:53:56.985Z,31.63
2018-02-24T05:56:25.318Z,31.66
2018-02-24T05:58:53.598Z,31.74
2018-02-24T06:01:21.874Z,31.78
2018-02-24T06:03:50.166Z,31.77
2018-02-24T06:06:18.438Z,31.75
2018-02-24T06:08:46.760Z,31.72
2018-02-24T06:11:15.050Z,31.67
2018-02-24T06:13:43.553Z,31.52
2018-02-24T06:16:11.842Z,31.41
2018-02-24T06:18:40.138Z,31.24
2018-02-24T06:21:08.445Z,31.11
2018-02-24T06:23:36.738Z,30.90
2018-02-24T06:26:04.843Z,30.76
2018-02-24T06:28:33.151Z,30.69
2018-02-24T06:31:01.250Z,30.53
2018-02-24T06:33:29.526Z,30.32
2018-02-24T06:35:57.815Z,30.00
2018-02-24T06:38:26.124Z,29.77
2018-02-24T06:40:54.236Z,29.59
2018-02-24T06:43:22.552Z,29.49
2018-02-24T06:45:50.879Z,29.48
2018-02-24T06:48:19.174Z,29.54
2018-02-24T06:50:47.514Z,29.09
2018-02-24T06:53:15.958Z,28.67
2018-02-24T06:55:45.756Z,28.84
2018-02-24T06:58:14.901Z,29.04
2018-02-24T07:00:43.343Z,29.18
2018-02-24T07:03:11.668Z,29.29
2018-02-24T07:05:39.955Z,29.35
2018-02-24T07:08:08.243Z,29.20
2018-02-24T07:10:36.527Z,29.23
2018-02-24T07:13:04.585Z,29.34
2018-02-24T07:15:33.006Z,29.96
2018-02-24T07:18:01.316Z,29.89
2018-02-24T07:20:29.626Z,29.81
2018-02-24T07:22:57.911Z,29.77
2018-02-24T07:25:26.236Z,29.80
2018-02-24T07:27:54.370Z,29.87
2018-02-24T07:30:22.465Z,30.02
2018-02-24T07:32:50.812Z,30.10
2018-02-24T07:35:19.100Z,30.22
2018-02-24T07:37:47.405Z,30.31
2018-02-24T07:40:15.690Z,30.52
2018-02-24T07:42:44.000Z,31.04
2018-02-24T07:45:12.309Z,31.82
2018-02-24T07:47:40.619Z,32.53
2018-02-24T07:50:08.943Z,33.01
2018-02-24T07:52:37.237Z,33.36
2018-02-24T07:57:48.281Z,33.67
2018-02-24T08:00:16.570Z,33.39
2018-02-24T08:02:44.851Z,33.11
2018-02-24T08:05:13.183Z,33.24
2018-02-24T08:07:41.469Z,33.25
2018-02-24T08:10:09.760Z,33.35
2018-02-24T08:12:38.110Z,33.50
2018-02-24T08:15:06.403Z,33.73
2018-02-24T08:17:34.747Z,34.04
2018-02-24T08:20:03.170Z,34.32
2018-02-24T08:22:31.450Z,34.55
2018-02-24T08:24:59.785Z,34.86
2018-02-24T08:27:28.096Z,35.15
2018-02-24T08:29:56.407Z,35.35
2018-02-24T08:32:24.704Z,35.56
2018-02-24T08:34:53.017Z,35.52
2018-02-24T08:37:21.364Z,35.72
2018-02-24T08:39:49.660Z,35.90
2018-02-24T08:42:17.949Z,36.00
2018-02-24T08:44:46.259Z,36.05
2018-02-24T08:47:14.620Z,36.10
2018-02-24T08:49:42.901Z,36.13
2018-02-24T08:52:11.226Z,36.14
2018-02-24T08:54:39.534Z,36.12
2018-02-24T08:57:07.986Z,36.07
2018-02-24T08:59:36.293Z,36.06
2018-02-24T09:02:04.606Z,36.01
2018-02-24T09:04:32.898Z,35.97
2018-02-24T09:07:01.197Z,35.91
2018-02-24T09:09:29.482Z,35.85
2018-02-24T09:11:57.780Z,35.82
2018-02-24T09:14:26.070Z,35.75
2018-02-24T09:16:54.186Z,35.67
2018-02-24T09:19:22.473Z,35.61
2018-02-24T09:21:50.799Z,35.54
2018-02-24T09:24:19.174Z,35.45
2018-02-24T09:26:47.486Z,35.41
2018-02-24T09:29:15.896Z,35.31
2018-02-24T09:31:44.484Z,35.26
2018-02-24T09:34:12.807Z,35.19
2018-02-24T09:36:41.110Z,35.13
2018-02-24T09:39:09.219Z,35.06
2018-02-24T09:41:37.510Z,34.99
2018-02-24T09:44:05.803Z,34.95
2018-02-24T09:46:34.093Z,34.90
2018-02-24T09:49:02.399Z,34.85
2018-02-24T09:51:30.742Z,34.81
2018-02-24T09:53:59.034Z,34.76
2018-02-24T09:56:27.320Z,34.72
2018-02-24T09:58:55.626Z,34.67
2018-02-24T10:01:23.930Z,34.62
2018-02-24T10:03:52.233Z,34.58
2018-02-24T10:06:20.541Z,34.53
2018-02-24T10:08:48.830Z,34.50
2018-02-24T10:11:17.173Z,34.45
2018-02-24T10:13:45.615Z,34.42
2018-02-24T10:16:14.739Z,34.37
2018-02-24T10:18:43.047Z,34.33
2018-02-24T10:21:11.343Z,34.30
2018-02-24T10:23:39.642Z,34.27
2018-02-24T10:26:07.945Z,34.22
2018-02-24T10:28:36.250Z,34.21
2018-02-24T10:31:04.542Z,34.18
2018-02-24T10:33:32.848Z,34.14
2018-02-24T10:36:01.155Z,34.13
2018-02-24T10:38:29.448Z,34.11
2018-02-24T10:40:57.743Z,34.07
2018-02-24T10:43:26.018Z,34.03
2018-02-24T10:45:54.306Z,34.01
2018-02-24T10:48:22.615Z,33.98
2018-02-24T10:50:50.938Z,33.96
2018-02-24T10:53:19.233Z,33.93
2018-02-24T10:55:47.537Z,33.90
2018-02-24T10:58:15.842Z,33.89
2018-02-24T11:00:44.226Z,33.86
2018-02-24T11:03:12.526Z,33.83
2018-02-24T11:05:41.774Z,33.83
2018-02-24T11:08:10.075Z,33.79
2018-02-24T11:10:38.371Z,33.76
2018-02-24T11:13:06.686Z,33.73
2018-02-24T11:15:34.963Z,33.75
2018-02-24T11:18:03.350Z,33.71
2018-02-24T11:20:32.358Z,33.65
2018-02-24T11:23:00.723Z,33.65
2018-02-24T11:25:29.168Z,33.64
2018-02-24T11:27:57.465Z,33.62
2018-02-24T11:30:25.764Z,33.60
2018-02-24T11:32:54.037Z,33.57
2018-02-24T11:35:22.347Z,33.56
2018-02-24T11:37:50.693Z,33.54
2018-02-24T11:40:18.982Z,33.54
2018-02-24T11:42:47.093Z,33.53
2018-02-24T11:45:15.374Z,33.49
2018-02-24T11:47:43.695Z,33.49
2018-02-24T11:50:12.005Z,33.47
2018-02-24T11:52:40.497Z,33.45
2018-02-24T11:55:08.782Z,33.43
2018-02-24T11:57:37.086Z,33.42
2018-02-24T12:00:05.412Z,33.39
2018-02-24T12:02:33.718Z,33.38
2018-02-24T12:05:02.002Z,33.38
2018-02-24T12:07:30.321Z,33.35
2018-02-24T12:09:58.418Z,33.34
2018-02-24T12:12:26.696Z,33.31
2018-02-24T12:14:54.967Z,33.28
2018-02-24T12:17:23.326Z,33.27
2018-02-24T12:19:51.698Z,33.26
2018-02-24T12:22:20.056Z,33.23
2018-02-24T12:24:48.346Z,33.21
2018-02-24T12:27:16.630Z,33.20
2018-02-24T12:29:44.910Z,33.20
2018-02-24T12:32:13.214Z,33.17
2018-02-24T12:34:41.498Z,33.14
2018-02-24T12:37:09.800Z,33.13
2018-02-24T12:39:38.110Z,33.12
2018-02-24T12:42:06.406Z,33.11
2018-02-24T12:44:34.524Z,33.10
2018-02-24T12:47:02.618Z,33.08
2018-02-24T12:49:30.750Z,33.06
2018-02-24T12:51:59.066Z,33.05
2018-02-24T12:54:27.362Z,33.05
2018-02-24T12:56:55.637Z,33.03
2018-02-24T12:59:23.940Z,33.03
2018-02-24T13:01:52.247Z,33.02
2018-02-24T13:04:20.555Z,33.00
2018-02-24T13:06:48.882Z,32.99
2018-02-24T13:09:17.163Z,32.98
2018-02-24T13:11:45.457Z,32.97
2018-02-24T13:14:13.749Z,32.96
2018-02-24T13:16:42.039Z,32.95
2018-02-24T13:19:10.331Z,32.93
2018-02-24T13:21:38.610Z,32.95
2018-02-24T13:24:06.754Z,32.95
2018-02-24T13:26:35.030Z,32.93
2018-02-24T13:29:03.321Z,32.91
2018-02-24T13:31:31.421Z,32.91
2018-02-24T13:33:59.728Z,32.89
2018-02-24T13:36:27.893Z,32.89
2018-02-24T13:38:56.010Z,32.88
2018-02-24T13:41:24.341Z,32.86
2018-02-24T13:43:52.598Z,32.84
2018-02-24T13:46:20.876Z,32.85
2018-02-24T13:48:49.163Z,32.84
2018-02-24T13:51:17.522Z,32.83
2018-02-24T13:53:45.813Z,32.81
2018-02-24T13:56:14.098Z,32.80
2018-02-24T13:58:42.402Z,32.77
2018-02-24T14:01:10.710Z,32.69
2018-02-24T14:03:39.038Z,32.69
2018-02-24T14:06:07.318Z,32.69
2018-02-24T14:08:35.608Z,32.68
2018-02-24T14:11:03.913Z,32.65
2018-02-24T14:13:32.205Z,32.63
2018-02-24T14:16:00.476Z,32.65
2018-02-24T14:18:28.769Z,32.67
2018-02-24T14:20:57.054Z,32.69
2018-02-24T14:23:25.369Z,32.74
2018-02-24T14:25:53.693Z,32.75
2018-02-24T14:28:22.006Z,32.75
2018-02-24T14:30:51.075Z,32.75
2018-02-24T14:33:19.510Z,32.75
2018-02-24T14:35:47.796Z,32.75
2018-02-24T14:38:16.137Z,32.73
2018-02-24T14:40:44.429Z,32.70
2018-02-24T14:43:12.740Z,32.69
2018-02-24T14:45:41.064Z,32.68
2018-02-24T14:48:09.354Z,32.68
2018-02-24T14:50:37.718Z,32.66
2018-02-24T14:53:06.014Z,32.62
2018-02-24T14:55:34.319Z,32.58
2018-02-24T14:58:02.643Z,32.56
2018-02-24T15:00:30.923Z,32.54
2018-02-24T15:02:59.203Z,32.50
2018-02-24T15:05:27.527Z,32.49
2018-02-24T15:07:55.664Z,32.47
2018-02-24T15:10:23.710Z,32.43
2018-02-24T15:12:52.010Z,32.43
2018-02-24T15:15:20.323Z,32.41
2018-02-24T15:17:48.460Z,32.40
2018-02-24T15:20:16.549Z,32.36
2018-02-24T15:22:44.839Z,32.34
2018-02-24T15:25:12.932Z,32.34
2018-02-24T15:27:41.047Z,32.33
2018-02-24T15:30:09.334Z,32.29
2018-02-24T15:32:37.432Z,32.28
2018-02-24T15:35:05.721Z,32.28
2018-02-24T15:37:34.042Z,32.27
2018-02-24T15:40:02.334Z,32.27
2018-02-24T15:42:30.627Z,32.26
2018-02-24T15:44:58.933Z,32.25
2018-02-24T15:47:27.218Z,32.25
2018-02-24T15:49:55.373Z,32.25
2018-02-24T15:55:06.383Z,32.22
2018-02-24T15:57:34.705Z,32.22
2018-02-24T16:00:02.998Z,32.22
2018-02-24T16:02:31.306Z,32.22
2018-02-24T16:04:59.595Z,32.22
2018-02-24T16:07:27.896Z,32.20
2018-02-24T16:09:56.227Z,32.21
2018-02-24T16:12:24.373Z,32.21
2018-02-24T16:14:52.698Z,32.23
2018-02-24T16:17:20.992Z,32.23
2018-02-24T16:19:49.282Z,32.22
2018-02-24T16:22:17.593Z,32.22
2018-02-24T16:24:45.721Z,32.20
2018-02-24T16:27:14.041Z,32.20
2018-02-24T16:29:42.362Z,32.18
2018-02-24T16:32:10.661Z,32.18
2018-02-24T16:34:38.977Z,32.16
2018-02-24T16:37:07.272Z,32.16
2018-02-24T16:39:35.581Z,32.14
2018-02-24T16:42:03.898Z,32.12
2018-02-24T16:44:32.293Z,32.12
2018-02-24T16:47:00.606Z,32.11
2018-02-24T16:49:28.908Z,32.12
2018-02-24T16:51:57.255Z,32.10
2018-02-24T16:54:25.566Z,32.10
2018-02-24T16:56:54.539Z,32.08
2018-02-24T16:59:22.844Z,32.08
2018-02-24T17:01:51.148Z,32.10
2018-02-24T17:04:19.445Z,32.06
2018-02-24T17:06:47.761Z,32.05
2018-02-24T17:09:16.973Z,32.04
2018-02-24T17:11:45.351Z,32.01
2018-02-24T17:14:13.896Z,32.01
2018-02-24T17:16:42.373Z,32.00
2018-02-24T17:19:10.670Z,31.98
2018-02-24T17:21:38.970Z,31.97
2018-02-24T17:24:07.269Z,31.97
2018-02-24T17:26:35.558Z,31.97
2018-02-24T17:29:03.865Z,31.95
2018-02-24T17:31:32.179Z,31.96
2018-02-24T17:34:00.499Z,31.94
2018-02-24T17:36:28.827Z,31.95
2018-02-24T17:38:56.956Z,31.97
2018-02-24T17:41:26.951Z,31.96
2018-02-24T17:43:55.246Z,31.97
2018-02-24T17:46:23.792Z,31.88
2018-02-24T17:48:52.113Z,31.88
2018-02-24T17:51:20.407Z,31.91
2018-02-24T17:53:48.713Z,31.96
2018-02-24T17:56:17.018Z,31.96
2018-02-24T17:59:07.495Z,32.01
2018-02-24T18:01:35.834Z,32.04
2018-02-24T18:04:03.738Z,32.02
2018-02-24T18:06:32.078Z,32.03
2018-02-24T18:09:00.148Z,32.00
2018-02-24T18:11:28.467Z,32.02
2018-02-24T18:13:56.779Z,32.03
2018-02-24T18:16:25.890Z,32.03
2018-02-24T18:18:56.240Z,32.03
2018-02-24T18:21:24.775Z,32.03
2018-02-24T18:23:53.272Z,32.03
2018-02-24T18:26:21.581Z,32.03
2018-02-24T18:28:49.891Z,32.05
2018-02-24T18:31:18.190Z,32.04
2018-02-24T18:33:46.470Z,32.04
2018-02-24T18:36:14.775Z,32.03
2018-02-24T18:38:43.078Z,32.03
2018-02-24T18:41:11.378Z,32.02
2018-02-24T18:43:40.294Z,32.00
2018-02-24T18:46:08.407Z,32.02
2018-02-24T18:48:36.494Z,32.03
2018-02-24T18:51:04.783Z,32.03
2018-02-24T18:53:33.081Z,32.03
2018-02-24T18:56:01.565Z,32.02
2018-02-24T18:58:29.881Z,32.00
2018-02-24T19:00:58.166Z,31.99
2018-02-24T19:03:26.443Z,31.95
2018-02-24T19:05:54.806Z,31.96
2018-02-24T19:08:23.056Z,31.96
2018-02-24T19:10:51.367Z,31.96
2018-02-24T19:13:19.650Z,31.96
2018-02-24T19:15:47.942Z,31.98
2018-02-24T19:18:16.266Z,31.98
2018-02-24T19:20:44.358Z,31.99
2018-02-24T19:23:12.643Z,32.00
2018-02-24T19:25:40.725Z,32.00
2018-02-24T19:28:09.021Z,32.03
2018-02-24T19:30:37.168Z,32.05
2018-02-24T19:33:05.438Z,32.06
2018-02-24T19:35:33.710Z,32.07
2018-02-24T19:38:02.007Z,32.04
2018-02-24T19:40:30.291Z,32.03
2018-02-24T19:42:58.604Z,32.01
2018-02-24T19:45:26.918Z,31.95
2018-02-24T19:47:55.252Z,31.92
2018-02-24T19:50:23.534Z,31.89
2018-02-24T19:52:51.954Z,31.78
2018-02-24T19:55:20.437Z,31.75
2018-02-24T19:57:48.836Z,31.74
2018-02-24T20:00:17.259Z,31.71
2018-02-24T20:02:45.804Z,31.66
2018-02-24T20:05:14.234Z,31.70
2018-02-24T20:07:42.932Z,31.68
2018-02-24T20:10:11.229Z,31.68
2018-02-24T20:12:41.097Z,31.67
2018-02-24T20:15:09.401Z,31.66
2018-02-24T20:17:37.698Z,31.64
2018-02-24T20:20:06.003Z,31.64
2018-02-24T20:22:34.287Z,31.64
2018-02-24T20:25:02.590Z,31.66
2018-02-24T20:27:30.907Z,31.66
2018-02-24T20:29:59.196Z,31.67
2018-02-24T20:32:27.497Z,31.67
2018-02-24T20:34:55.846Z,31.68
2018-02-24T20:37:24.159Z,31.70
2018-02-24T20:39:52.578Z,31.72
2018-02-24T20:42:21.196Z,31.73
2018-02-24T20:44:49.567Z,31.75
2018-02-24T20:47:17.860Z,31.76
2018-02-24T20:49:46.175Z,31.78
2018-02-24T20:52:14.271Z,31.81
2018-02-24T20:54:42.410Z,31.79
2018-02-24T20:57:10.723Z,31.79
2018-02-24T20:59:39.007Z,31.79
2018-02-24T21:02:07.302Z,31.80
2018-02-24T21:04:35.585Z,31.79
2018-02-24T21:07:03.721Z,31.80
2018-02-24T21:09:32.017Z,31.82
2018-02-24T21:12:00.321Z,31.84
2018-02-24T21:14:28.641Z,31.85
2018-02-24T21:16:56.939Z,31.86
2018-02-24T21:19:25.234Z,31.87
2018-02-24T21:21:53.551Z,31.87
2018-02-24T21:24:22.006Z,31.86
2018-02-24T21:26:50.306Z,31.85
2018-02-24T21:29:18.581Z,31.86
2018-02-24T21:31:46.861Z,31.85
2018-02-24T21:34:15.149Z,31.83
2018-02-24T21:36:43.454Z,31.80
2018-02-24T21:39:11.734Z,31.79
2018-02-24T21:41:40.061Z,31.80
2018-02-24T21:44:08.413Z,31.79
2018-02-24T21:46:36.705Z,31.80
2018-02-24T21:49:05.010Z,31.79
2018-02-24T21:51:33.300Z,31.81
2018-02-24T21:54:01.591Z,31.80
2018-02-24T21:56:29.726Z,31.79
2018-02-24T21:58:58.018Z,31.81
2018-02-24T22:01:26.333Z,31.82
2018-02-24T22:03:54.638Z,31.82
2018-02-24T22:06:22.940Z,31.81
2018-02-24T22:08:51.230Z,31.83
2018-02-24T22:11:19.527Z,31.82
2018-02-24T22:13:47.844Z,31.82
2018-02-24T22:16:16.993Z,31.83
2018-02-24T22:18:45.304Z,31.83
2018-02-24T22:21:13.596Z,31.82
2018-02-24T22:23:41.879Z,31.79
2018-02-24T22:26:10.199Z,31.77
2018-02-24T22:28:38.502Z,31.76
2018-02-24T22:31:06.598Z,31.74
2018-02-24T22:33:34.891Z,31.74
2018-02-24T22:36:03.198Z,31.72
2018-02-24T22:38:31.512Z,31.69
2018-02-24T22:40:59.833Z,31.70
2018-02-24T22:43:28.125Z,31.70
2018-02-24T22:45:56.424Z,31.69
2018-02-24T22:48:30.202Z,31.70
2018-02-24T22:50:58.511Z,31.69
2018-02-24T22:53:26.794Z,31.69
2018-02-24T22:55:55.084Z,31.69
2018-02-24T22:58:23.805Z,31.68
2018-02-24T23:00:52.100Z,31.68
2018-02-24T23:03:20.391Z,31.66
2018-02-24T23:05:48.784Z,31.66
2018-02-24T23:08:17.077Z,31.66
2018-02-24T23:10:45.363Z,31.64
2018-02-24T23:13:13.644Z,31.63
2018-02-24T23:15:41.922Z,31.63
2018-02-24T23:18:10.206Z,31.61
2018-02-24T23:20:38.490Z,31.59
2018-02-24T23:23:06.766Z,31.59
2018-02-24T23:25:35.062Z,31.58
2018-02-24T23:28:03.351Z,31.58
2018-02-24T23:30:31.634Z,31.57
2018-02-24T23:32:59.931Z,31.57
2018-02-24T23:35:28.230Z,31.55
2018-02-24T23:37:56.538Z,31.55
2018-02-24T23:40:24.639Z,31.55
2018-02-24T23:42:52.919Z,31.53
2018-02-24T23:45:21.205Z,31.53
2018-02-24T23:47:49.325Z,31.53
2018-02-24T23:50:17.445Z,31.53
2018-02-24T23:52:45.550Z,31.51
2018-02-24T23:55:13.665Z,31.51
2018-02-24T23:57:41.966Z,31.51
